sensor_id;sensor_type;location;lat;lon;timestamp;temperature;humidity
47604;DHT22;33326;51.116;6.900;2023-04-03T14:29:17;30.70;43.40
47604;DHT22;33326;51.116;6.900;2023-04-03T14:34:22;30.70;44.00
47604;DHT22;33326;51.116;6.900;2023-04-03T14:39:24;30.90;45.30
47604;DHT22;33326;51.116;6.900;2023-04-03T14:44:28;31.90;44.10
47604;DHT22;33326;51.116;6.900;2023-04-03T14:49:32;31.80;42.60
47604;DHT22;33326;51.116;6.900;2023-04-03T14:54:35;32.50;42.60
47604;DHT22;33326;51.116;6.900;2023-04-03T14:59:38;30.80;42.80
47604;DHT22;33326;51.116;6.900;2023-04-03T15:04:40;30.60;42.20
47604;DHT22;33326;51.116;6.900;2023-04-03T15:09:42;30.10;42.10
47604;DHT22;33326;51.116;6.900;2023-04-03T15:14:45;30.50;41.90
47604;DHT22;33326;51.116;6.900;2023-04-03T15:19:47;30.90;39.70
47604;DHT22;33326;51.116;6.900;2023-04-03T15:24:49;32.30;40.80
47604;DHT22;33326;51.116;6.900;2023-04-03T15:29:52;32.00;40.50
47604;DHT22;33326;51.116;6.900;2023-04-03T15:34:54;30.70;39.10
47604;DHT22;33326;51.116;6.900;2023-04-03T15:39:56;31.10;39.80
47604;DHT22;33326;51.116;6.900;2023-04-03T15:45:01;29.40;41.10
47604;DHT22;33326;51.116;6.900;2023-04-03T15:50:04;29.00;40.40
47604;DHT22;33326;51.116;6.900;2023-04-03T15:55:08;30.10;40.30
47604;DHT22;33326;51.116;6.900;2023-04-03T16:00:13;29.60;38.40
47604;DHT22;33326;51.116;6.900;2023-04-03T16:05:15;30.20;39.00
47604;DHT22;33326;51.116;6.900;2023-04-03T16:10:18;29.80;39.50
47604;DHT22;33326;51.116;6.900;2023-04-03T16:15:27;31.00;38.40
47604;DHT22;33326;51.116;6.900;2023-04-03T16:20:29;30.90;38.20
47604;DHT22;33326;51.116;6.900;2023-04-03T16:25:31;29.40;38.80
47604;DHT22;33326;51.116;6.900;2023-04-03T16:30:36;28.10;38.90
47604;DHT22;33326;51.116;6.900;2023-04-03T16:35:38;28.30;38.90
47604;DHT22;33326;51.116;6.900;2023-04-03T16:40:45;26.10;40.30
47604;DHT22;33326;51.116;6.900;2023-04-03T16:45:50;26.20;39.50
47604;DHT22;33326;51.116;6.900;2023-04-03T16:50:52;24.40;40.30
47604;DHT22;33326;51.116;6.900;2023-04-03T16:55:56;23.80;40.90
47604;DHT22;33326;51.116;6.900;2023-04-03T17:01:09;21.60;40.90
47604;DHT22;33326;51.116;6.900;2023-04-03T17:06:16;18.00;44.80
47604;DHT22;33326;51.116;6.900;2023-04-03T17:11:18;15.70;47.50
47604;DHT22;33326;51.116;6.900;2023-04-03T17:16:23;13.80;49.50
47604;DHT22;33326;51.116;6.900;2023-04-03T17:21:26;13.10;51.00
47604;DHT22;33326;51.116;6.900;2023-04-03T17:26:28;12.80;51.50
47604;DHT22;33326;51.116;6.900;2023-04-03T17:31:32;12.30;52.50
47604;DHT22;33326;51.116;6.900;2023-04-03T17:36:35;11.80;54.10
47604;DHT22;33326;51.116;6.900;2023-04-03T17:41:37;11.70;54.10
47604;DHT22;33326;51.116;6.900;2023-04-03T17:46:40;11.30;54.60
47604;DHT22;33326;51.116;6.900;2023-04-03T17:51:42;10.80;55.60
47604;DHT22;33326;51.116;6.900;2023-04-03T17:56:44;10.40;57.00
47604;DHT22;33326;51.116;6.900;2023-04-03T18:01:49;10.00;57.60
47604;DHT22;33326;51.116;6.900;2023-04-03T18:06:52;9.90;57.30
47604;DHT22;33326;51.116;6.900;2023-04-03T18:11:56;9.80;57.70
47604;DHT22;33326;51.116;6.900;2023-04-03T18:17:01;9.70;58.50
47604;DHT22;33326;51.116;6.900;2023-04-03T18:22:07;9.40;59.90
47604;DHT22;33326;51.116;6.900;2023-04-03T18:27:12;9.50;59.00
47604;DHT22;33326;51.116;6.900;2023-04-03T18:32:18;9.30;59.20
47604;DHT22;33326;51.116;6.900;2023-04-03T18:37:20;9.30;59.90
47604;DHT22;33326;51.116;6.900;2023-04-03T18:42:26;9.20;60.10
47604;DHT22;33326;51.116;6.900;2023-04-03T18:47:31;9.10;60.20
47604;DHT22;33326;51.116;6.900;2023-04-03T18:52:33;9.10;60.40
47604;DHT22;33326;51.116;6.900;2023-04-03T18:57:35;8.80;61.20
47604;DHT22;33326;51.116;6.900;2023-04-03T19:02:38;8.80;61.00
47604;DHT22;33326;51.116;6.900;2023-04-03T19:07:42;8.60;61.80
47604;DHT22;33326;51.116;6.900;2023-04-03T19:12:46;8.30;62.10
47604;DHT22;33326;51.116;6.900;2023-04-03T19:17:50;8.10;63.00
47604;DHT22;33326;51.116;6.900;2023-04-03T19:22:52;8.10;62.80
47604;DHT22;33326;51.116;6.900;2023-04-03T19:27:54;8.10;62.60
47604;DHT22;33326;51.116;6.900;2023-04-03T19:33:05;8.00;63.30
47604;DHT22;33326;51.116;6.900;2023-04-03T19:38:07;8.00;63.70
47604;DHT22;33326;51.116;6.900;2023-04-03T19:43:09;8.00;63.40
47604;DHT22;33326;51.116;6.900;2023-04-03T19:48:13;7.80;63.70
47604;DHT22;33326;51.116;6.900;2023-04-03T19:53:15;7.70;64.40
47604;DHT22;33326;51.116;6.900;2023-04-03T19:58:21;7.80;63.80
47604;DHT22;33326;51.116;6.900;2023-04-03T20:03:25;7.90;63.60
47604;DHT22;33326;51.116;6.900;2023-04-03T20:08:27;7.90;63.40
47604;DHT22;33326;51.116;6.900;2023-04-03T20:13:29;8.00;63.40
47604;DHT22;33326;51.116;6.900;2023-04-03T20:18:34;7.80;64.10
47604;DHT22;33326;51.116;6.900;2023-04-03T20:23:37;7.70;64.10
47604;DHT22;33326;51.116;6.900;2023-04-03T20:28:39;7.70;63.90
47604;DHT22;33326;51.116;6.900;2023-04-03T20:33:42;7.70;64.00
47604;DHT22;33326;51.116;6.900;2023-04-03T20:38:44;7.70;64.50
47604;DHT22;33326;51.116;6.900;2023-04-03T20:43:47;7.30;65.80
47604;DHT22;33326;51.116;6.900;2023-04-03T20:48:50;7.30;65.40
47604;DHT22;33326;51.116;6.900;2023-04-03T20:53:53;7.50;64.90
47604;DHT22;33326;51.116;6.900;2023-04-03T20:58:56;7.30;65.80
47604;DHT22;33326;51.116;6.900;2023-04-03T21:04:04;7.10;66.20
47604;DHT22;33326;51.116;6.900;2023-04-03T21:20:30;7.20;66.50
47604;DHT22;33326;51.116;6.900;2023-04-03T21:25:33;6.90;66.70
47604;DHT22;33326;51.116;6.900;2023-04-03T21:30:35;6.90;67.20
47604;DHT22;33326;51.116;6.900;2023-04-03T21:35:38;7.00;67.00
47604;DHT22;33326;51.116;6.900;2023-04-03T21:40:45;7.10;66.90
47604;DHT22;33326;51.116;6.900;2023-04-03T21:45:54;6.90;67.30
47604;DHT22;33326;51.116;6.900;2023-04-03T21:51:09;6.80;67.70
47604;DHT22;33326;51.116;6.900;2023-04-03T21:56:21;6.60;68.70
47604;DHT22;33326;51.116;6.900;2023-04-03T22:01:43;6.50;69.20
47604;DHT22;33326;51.116;6.900;2023-04-03T22:06:47;6.20;69.60
47604;DHT22;33326;51.116;6.900;2023-04-03T22:11:49;6.30;69.80
47604;DHT22;33326;51.116;6.900;2023-04-03T22:17:03;6.20;70.50
47604;DHT22;33326;51.116;6.900;2023-04-03T22:22:17;6.00;70.90
47604;DHT22;33326;51.116;6.900;2023-04-03T22:27:30;5.90;71.80
47604;DHT22;33326;51.116;6.900;2023-04-03T22:32:45;5.90;72.40
47604;DHT22;33326;51.116;6.900;2023-04-03T22:38:14;5.80;72.50
47604;DHT22;33326;51.116;6.900;2023-04-03T22:43:36;5.90;72.30
47604;DHT22;33326;51.116;6.900;2023-04-03T22:48:47;6.00;70.90
47604;DHT22;33326;51.116;6.900;2023-04-03T22:54:00;6.10;71.20
47604;DHT22;33326;51.116;6.900;2023-04-03T23:04:51;6.10;71.10
47604;DHT22;33326;51.116;6.900;2023-04-03T23:10:17;5.80;71.60
47604;DHT22;33326;51.116;6.900;2023-04-03T23:15:32;5.60;72.70
47604;DHT22;33326;51.116;6.900;2023-04-03T23:20:48;5.40;73.40
47604;DHT22;33326;51.116;6.900;2023-04-03T23:26:28;5.40;73.70
47604;DHT22;33326;51.116;6.900;2023-04-03T23:31:45;5.20;75.20
47604;DHT22;33326;51.116;6.900;2023-04-03T23:50:32;4.90;77.90
47604;DHT22;33326;51.116;6.900;2023-04-03T23:55:56;4.80;77.40
